createdAt,value
2023-04-02T00:00:29.555Z,96262.66
2023-04-02T00:02:59.253Z,96278.03
2023-04-02T00:05:31.542Z,96280.16
2023-04-02T00:08:04.533Z,96268.91
2023-04-02T00:10:35.043Z,96284.25
2023-04-02T00:13:05.645Z,96289.44
2023-04-02T00:15:33.308Z,96288.22
2023-04-02T00:18:00.514Z,96285.00
2023-04-02T00:20:28.234Z,96291.84
2023-04-02T00:22:56.431Z,96299.59
2023-04-02T00:25:26.394Z,96300.97
2023-04-02T00:27:52.754Z,96289.25
2023-04-02T00:30:19.123Z,96293.81
2023-04-02T00:32:46.076Z,96296.13
2023-04-02T00:35:20.962Z,96301.59
2023-04-02T00:37:47.521Z,96293.09
2023-04-02T00:40:24.978Z,96289.72
2023-04-02T00:42:53.723Z,96299.19
2023-04-02T00:45:28.756Z,96297.34
2023-04-02T00:47:57.035Z,96297.34
2023-04-02T00:50:32.728Z,96306.94
2023-04-02T00:53:04.320Z,96307.69
2023-04-02T00:55:39.743Z,96312.25
2023-04-02T00:58:36.628Z,96317.25
2023-04-02T01:01:04.505Z,96315.28
2023-04-02T01:03:38.856Z,96326.34
2023-04-02T01:06:14.181Z,96313.53
2023-04-02T01:09:03.730Z,96321.13
2023-04-02T01:11:51.425Z,96327.53
2023-04-02T01:14:26.832Z,96317.31
2023-04-02T01:17:11.189Z,96322.78
2023-04-02T01:19:58.367Z,96338.75
2023-04-02T01:22:41.685Z,96332.81
2023-04-02T01:25:13.466Z,96330.69
2023-04-02T01:27:57.181Z,96332.38
2023-04-02T01:30:24.243Z,96331.91
2023-04-02T01:32:50.818Z,96344.09
2023-04-02T01:35:17.417Z,96338.75
2023-04-02T01:37:53.161Z,96350.66
2023-04-02T01:40:53.538Z,96350.66
2023-04-02T01:43:26.044Z,96354.13
2023-04-02T01:45:52.451Z,96354.13
2023-04-02T01:48:29.954Z,96347.88
2023-04-02T01:50:59.182Z,96343.88
2023-04-02T01:53:28.545Z,96359.88
2023-04-02T01:55:59.340Z,96369.19
2023-04-02T01:58:31.864Z,96364.00
2023-04-02T02:01:05.785Z,96359.25
2023-04-02T02:03:33.544Z,96367.31
2023-04-02T02:06:01.838Z,96374.94
2023-04-02T02:08:38.377Z,96377.50
2023-04-02T02:11:06.314Z,96378.59
2023-04-02T02:13:33.517Z,96376.00
2023-04-02T02:16:01.490Z,96381.19
2023-04-02T02:18:29.151Z,96381.47
2023-04-02T02:20:58.287Z,96381.91
2023-04-02T02:23:26.573Z,96390.75
2023-04-02T02:25:54.817Z,96384.47
2023-04-02T02:28:25.964Z,96396.97
2023-04-02T02:30:57.951Z,96385.53
2023-04-02T02:33:32.584Z,96396.03
2023-04-02T02:36:03.054Z,96402.25
2023-04-02T02:38:35.227Z,96399.97
2023-04-02T02:41:07.627Z,96403.63
2023-04-02T02:43:38.973Z,96416.88
2023-04-02T02:46:08.156Z,96419.00
2023-04-02T02:48:38.964Z,96427.50
2023-04-02T02:51:14.468Z,96419.88
2023-04-02T02:53:50.422Z,96416.53
2023-04-02T02:56:17.310Z,96429.78
2023-04-02T02:58:43.818Z,96423.97
2023-04-02T03:01:10.608Z,96434.78
2023-04-02T03:03:37.751Z,96431.00
2023-04-02T03:06:08.987Z,96436.16
2023-04-02T03:08:46.441Z,96440.13
2023-04-02T03:11:24.610Z,96441.47
2023-04-02T03:13:55.946Z,96445.41
2023-04-02T03:16:40.744Z,96448.75
2023-04-02T03:19:30.115Z,96460.63
2023-04-02T03:22:13.257Z,96465.31
2023-04-02T03:24:58.648Z,96465.03
2023-04-02T03:27:39.051Z,96468.66
2023-04-02T03:30:14.612Z,96467.56
2023-04-02T03:32:44.004Z,96469.22
2023-04-02T03:35:27.085Z,96481.59
2023-04-02T03:38:01.958Z,96484.16
2023-04-02T03:40:34.441Z,96481.72
2023-04-02T03:43:21.881Z,96489.06
2023-04-02T03:45:54.033Z,96497.84
2023-04-02T03:48:25.796Z,96499.66
2023-04-02T03:51:00.140Z,96503.78
2023-04-02T03:53:29.301Z,96493.09
2023-04-02T03:55:57.127Z,96508.66
2023-04-02T03:58:28.819Z,96518.22
2023-04-02T04:00:58.070Z,96519.75
2023-04-02T04:03:36.841Z,96509.06
2023-04-02T04:06:11.468Z,96516.81
2023-04-02T04:08:46.851Z,96529.63
2023-04-02T04:11:17.251Z,96527.03
2023-04-02T04:13:54.451Z,96532.78
2023-04-02T04:16:28.617Z,96525.63
2023-04-02T04:19:12.396Z,96542.09
2023-04-02T04:21:38.749Z,96546.63
2023-04-02T04:24:12.860Z,96546.63
2023-04-02T04:27:17.051Z,96553.66
2023-04-02T04:29:58.507Z,96553.66
2023-04-02T04:32:35.412Z,96556.50
2023-04-02T04:35:14.047Z,96555.84
2023-04-02T04:37:43.374Z,96556.63
2023-04-02T04:40:19.032Z,96574.91
2023-04-02T04:42:51.729Z,96567.25
2023-04-02T04:45:47.633Z,96578.72
2023-04-02T04:48:26.644Z,96589.31
2023-04-02T04:51:03.980Z,96580.91
2023-04-02T04:53:31.009Z,96596.81
2023-04-02T04:56:12.503Z,96589.28
2023-04-02T04:58:47.458Z,96599.00
2023-04-02T05:01:21.566Z,96604.66
2023-04-02T05:03:56.832Z,96615.00
2023-04-02T05:06:38.502Z,96602.34
2023-04-02T05:09:34.745Z,96615.94
2023-04-02T05:12:25.499Z,96615.16
2023-04-02T05:15:02.295Z,96615.75
2023-04-02T05:18:02.496Z,96622.91
2023-04-02T05:20:37.931Z,96629.63
2023-04-02T05:23:15.302Z,96635.09
2023-04-02T05:25:57.883Z,96633.81
2023-04-02T05:28:53.946Z,96638.91
2023-04-02T05:31:26.143Z,96647.13
2023-04-02T05:33:54.775Z,96649.41
2023-04-02T05:36:39.529Z,96637.69
2023-04-02T05:39:09.793Z,96645.13
2023-04-02T05:41:45.818Z,96656.13
2023-04-02T05:44:22.052Z,96668.94
2023-04-02T05:46:56.887Z,96653.81
2023-04-02T05:49:31.673Z,96665.28
2023-04-02T05:52:02.129Z,96670.94
2023-04-02T05:54:38.210Z,96678.09
2023-04-02T05:57:11.538Z,96685.09
2023-04-02T05:59:43.334Z,96684.50
2023-04-02T06:02:31.214Z,96686.31
2023-04-02T06:05:17.291Z,96700.50
2023-04-02T06:07:48.356Z,96689.97
2023-04-02T06:10:24.736Z,96704.78
2023-04-02T06:13:03.284Z,96710.72
2023-04-02T06:15:32.259Z,96709.09
2023-04-02T06:17:59.784Z,96716.06
2023-04-02T06:20:27.048Z,96713.03
2023-04-02T06:22:59.659Z,96700.97
2023-04-02T06:25:39.271Z,96729.34
2023-04-02T06:28:12.710Z,96728.13
2023-04-02T06:30:41.671Z,96738.81
2023-04-02T06:33:12.447Z,96739.69
2023-04-02T06:35:41.660Z,96733.50
2023-04-02T06:38:17.370Z,96752.41
2023-04-02T06:40:53.650Z,96760.66
2023-04-02T06:43:41.037Z,96746.41
2023-04-02T06:46:29.386Z,96755.88
2023-04-02T06:49:04.242Z,96773.28
2023-04-02T06:51:33.753Z,96780.28
2023-04-02T06:54:00.190Z,96773.78
2023-04-02T06:56:47.401Z,96781.72
2023-04-02T06:59:15.614Z,96787.00
2023-04-02T07:01:48.930Z,96792.47
2023-04-02T07:04:15.736Z,96804.34
2023-04-02T07:06:42.134Z,96804.22
2023-04-02T07:09:08.852Z,96814.56
2023-04-02T07:11:35.394Z,96820.25
2023-04-02T07:14:01.893Z,96834.41
2023-04-02T07:16:31.617Z,96828.78
2023-04-02T07:19:02.907Z,96825.22
2023-04-02T07:21:29.542Z,96844.56
2023-04-02T07:23:56.043Z,96851.47
2023-04-02T07:26:27.003Z,96851.34
2023-04-02T07:28:55.144Z,96864.38
2023-04-02T07:31:27.717Z,96857.53
2023-04-02T07:34:00.047Z,96879.28
2023-04-02T07:36:29.134Z,96886.72
2023-04-02T07:38:55.877Z,96891.75
2023-04-02T07:41:23.234Z,96889.06
2023-04-02T07:43:49.978Z,96911.00
2023-04-02T07:46:17.990Z,96904.16
2023-04-02T07:48:44.981Z,96914.28
2023-04-02T07:51:25.809Z,96916.75
2023-04-02T07:53:55.811Z,96903.53
2023-04-02T07:56:24.242Z,96917.16
2023-04-02T07:58:50.861Z,96929.72
2023-04-02T08:01:25.553Z,96934.91
2023-04-02T08:03:57.080Z,96935.72
2023-04-02T08:06:24.662Z,96939.66
2023-04-02T08:08:51.100Z,96939.97
2023-04-02T08:11:17.526Z,96944.06
2023-04-02T08:13:44.224Z,96954.56
2023-04-02T08:16:11.042Z,96957.22
2023-04-02T08:18:37.606Z,96966.69
2023-04-02T08:21:08.632Z,96974.66
2023-04-02T08:23:35.827Z,96972.63
2023-04-02T08:26:02.580Z,96983.25
2023-04-02T08:28:28.996Z,96979.59
2023-04-02T08:30:55.543Z,96982.84
2023-04-02T08:33:21.969Z,96992.91
2023-04-02T08:35:49.700Z,97011.44
2023-04-02T08:38:18.549Z,97006.56
2023-04-02T08:40:48.731Z,97007.16
2023-04-02T08:43:33.291Z,97025.94
2023-04-02T08:46:11.616Z,97023.72
2023-04-02T08:48:42.713Z,97010.44
2023-04-02T08:51:21.895Z,97036.56
2023-04-02T08:53:48.507Z,97047.38
2023-04-02T08:56:20.400Z,97043.53
2023-04-02T08:58:48.292Z,97051.81
2023-04-02T09:01:47.169Z,97044.97
2023-04-02T09:04:20.009Z,97061.22
2023-04-02T09:06:48.822Z,97068.19
2023-04-02T09:09:16.709Z,97053.84
2023-04-02T09:12:04.512Z,97073.34
2023-04-02T09:14:36.704Z,97082.66
2023-04-02T09:17:06.364Z,97075.25
2023-04-02T09:19:40.882Z,97094.31
2023-04-02T09:22:27.159Z,97103.28
2023-04-02T09:24:59.520Z,97088.59
2023-04-02T09:27:34.672Z,97104.31
2023-04-02T09:30:18.043Z,97104.03
2023-04-02T09:32:47.916Z,97107.88
2023-04-02T09:35:26.177Z,97110.25
2023-04-02T09:38:19.074Z,97126.44
2023-04-02T09:40:56.763Z,97126.56
2023-04-02T09:43:27.201Z,97138.69
2023-04-02T09:46:03.991Z,97142.00
2023-04-02T09:48:40.787Z,97139.44
2023-04-02T09:51:13.307Z,97145.84
2023-04-02T09:53:49.191Z,97146.13
2023-04-02T09:56:17.155Z,97157.34
2023-04-02T09:58:45.538Z,97162.50
2023-04-02T10:01:47.834Z,97162.94
2023-04-02T10:04:36.510Z,97180.94
2023-04-02T10:07:06.296Z,97177.34
2023-04-02T10:09:37.803Z,97183.56
2023-04-02T10:12:07.464Z,97184.34
2023-04-02T10:14:43.781Z,97186.97
2023-04-02T10:17:21.954Z,97188.81
2023-04-02T10:19:52.563Z,97192.97
2023-04-02T10:22:21.582Z,97211.31
2023-04-02T10:24:48.871Z,97204.13
2023-04-02T10:27:18.238Z,97217.50
2023-04-02T10:30:02.021Z,97221.16
2023-04-02T10:32:44.117Z,97226.31
2023-04-02T10:35:19.675Z,97231.72
2023-04-02T10:37:46.198Z,97245.03
2023-04-02T10:40:34.189Z,97235.25
2023-04-02T10:43:42.301Z,97240.91
2023-04-02T10:46:24.487Z,97247.38
2023-04-02T10:49:05.337Z,97238.34
2023-04-02T10:51:43.998Z,97247.09
2023-04-02T10:54:30.583Z,97251.75
2023-04-02T10:57:08.858Z,97260.75
2023-04-02T10:59:39.843Z,97254.13
2023-04-02T11:02:29.226Z,97273.44
2023-04-02T11:05:01.986Z,97270.38
2023-04-02T11:07:32.326Z,97270.38
2023-04-02T11:10:00.808Z,97284.03
2023-04-02T11:12:59.424Z,97283.78
2023-04-02T11:15:27.170Z,97283.81
2023-04-02T11:17:54.653Z,97283.03
2023-04-02T11:20:44.277Z,97299.78
2023-04-02T11:23:17.627Z,97296.97
2023-04-02T11:25:45.561Z,97305.78
2023-04-02T11:28:29.349Z,97314.75
2023-04-02T11:30:57.156Z,97326.84
2023-04-02T11:33:39.116Z,97327.06
2023-04-02T11:36:50.246Z,97327.59
2023-04-02T11:39:49.515Z,97327.59
2023-04-02T11:42:18.913Z,97336.06
2023-04-02T11:44:45.450Z,97330.97
2023-04-02T11:47:25.365Z,97332.47
2023-04-02T11:49:54.659Z,97346.94
2023-04-02T11:52:25.060Z,97342.59
2023-04-02T11:55:01.052Z,97344.38
2023-04-02T11:57:50.168Z,97359.56
2023-04-02T12:00:28.557Z,97345.44
2023-04-02T12:03:21.154Z,97371.19
2023-04-02T12:06:06.189Z,97374.28
2023-04-02T12:08:57.078Z,97379.94
2023-04-02T12:11:39.061Z,97383.31
2023-04-02T12:14:36.540Z,97384.63
2023-04-02T12:17:06.328Z,97383.63
2023-04-02T12:19:34.196Z,97381.28
2023-04-02T12:22:01.567Z,97397.00
2023-04-02T12:24:31.280Z,97402.41
2023-04-02T12:27:15.498Z,97405.25
2023-04-02T12:29:42.661Z,97415.84
2023-04-02T12:32:30.622Z,97413.50
2023-04-02T12:34:58.021Z,97426.13
2023-04-02T12:37:29.632Z,97415.59
2023-04-02T12:40:05.442Z,97423.31
2023-04-02T12:42:37.118Z,97430.50
2023-04-02T12:45:06.770Z,97431.81
2023-04-02T12:47:33.529Z,97433.88
2023-04-02T12:50:02.018Z,97434.91
2023-04-02T12:52:29.280Z,97441.59
2023-04-02T12:55:01.159Z,97447.25
2023-04-02T12:57:27.582Z,97458.06
2023-04-02T12:59:55.763Z,97439.53
2023-04-02T13:02:24.918Z,97451.88
2023-04-02T13:05:01.705Z,97439.78
2023-04-02T13:07:33.364Z,97459.84
2023-04-02T13:10:02.536Z,97461.91
2023-04-02T13:12:37.947Z,97458.81
2023-04-02T13:15:20.325Z,97453.94
2023-04-02T13:17:49.030Z,97467.34
2023-04-02T13:20:38.269Z,97467.34
2023-04-02T13:23:29.664Z,97472.50
2023-04-02T13:25:57.502Z,97454.75
2023-04-02T13:28:23.917Z,97456.28
2023-04-02T13:30:50.855Z,97480.72
2023-04-02T13:33:17.278Z,97476.34
2023-04-02T13:35:44.303Z,97473.00
2023-04-02T13:38:10.795Z,97480.75
2023-04-02T13:40:38.569Z,97478.94
2023-04-02T13:43:06.755Z,97493.66
2023-04-02T13:45:37.332Z,97480.00
2023-04-02T13:48:05.182Z,97488.50
2023-04-02T13:50:34.389Z,97480.50
2023-04-02T13:53:08.363Z,97498.53
2023-04-02T13:55:40.559Z,97489.00
2023-04-02T13:58:07.125Z,97492.06
2023-04-02T14:00:37.665Z,97495.69
2023-04-02T14:03:11.364Z,97512.72
2023-04-02T14:05:53.609Z,97511.41
2023-04-02T14:08:38.502Z,97520.69
2023-04-02T14:11:26.178Z,97527.13
2023-04-02T14:14:05.013Z,97531.00
2023-04-02T14:16:45.415Z,97522.50
2023-04-02T14:19:44.131Z,97529.97
2023-04-02T14:22:15.860Z,97542.34
2023-04-02T14:24:57.703Z,97542.84
2023-04-02T14:27:32.840Z,97554.94
2023-04-02T14:30:21.977Z,97537.19
2023-04-02T14:33:23.434Z,97551.34
2023-04-02T14:35:57.771Z,97559.34
2023-04-02T14:38:34.839Z,97564.75
2023-04-02T14:41:13.773Z,97572.47
2023-04-02T14:43:56.350Z,97572.75
2023-04-02T14:46:27.393Z,97563.72
2023-04-02T14:49:16.877Z,97572.25
2023-04-02T14:51:49.711Z,97572.25
2023-04-02T14:54:34.321Z,97576.09
2023-04-02T14:57:05.597Z,97572.47
2023-04-02T14:59:50.684Z,97575.84
2023-04-02T15:02:27.676Z,97574.81
2023-04-02T15:05:01.944Z,97582.78
2023-04-02T15:07:39.356Z,97593.34
2023-04-02T15:10:22.164Z,97596.66
2023-04-02T15:12:50.195Z,97599.00
2023-04-02T15:15:45.771Z,97616.47
2023-04-02T15:18:17.555Z,97590.19
2023-04-02T15:21:10.720Z,97616.25
2023-04-02T15:23:54.888Z,97622.91
2023-04-02T15:26:39.274Z,97627.00
2023-04-02T15:29:31.781Z,97627.22
2023-04-02T15:32:07.949Z,97628.47
2023-04-02T15:34:49.499Z,97628.44
2023-04-02T15:37:34.012Z,97633.03
2023-04-02T15:40:28.314Z,97630.75
2023-04-02T15:42:59.020Z,97634.09
2023-04-02T15:46:07.466Z,97636.69
2023-04-02T15:48:49.974Z,97641.03
2023-04-02T15:51:26.369Z,97641.78
2023-04-02T15:53:54.537Z,97645.09
2023-04-02T15:57:04.517Z,97644.06
2023-04-02T15:59:55.086Z,97657.97
2023-04-02T16:02:35.478Z,97658.19
2023-04-02T16:05:20.025Z,97670.47
2023-04-02T16:08:07.049Z,97667.63
2023-04-02T16:10:42.030Z,97669.34
2023-04-02T16:13:26.991Z,97680.19
2023-04-02T16:16:17.271Z,97685.84
2023-04-02T16:19:02.792Z,97690.19
2023-04-02T16:21:32.723Z,97692.75
2023-04-02T16:23:59.325Z,97690.13
2023-04-02T16:26:37.854Z,97701.75
2023-04-02T16:29:28.679Z,97707.22
2023-04-02T16:32:13.811Z,97715.38
2023-04-02T16:37:56.392Z,97717.38
2023-04-02T16:41:00.546Z,97717.50
2023-04-02T16:43:44.803Z,97723.00
2023-04-02T16:46:28.232Z,97721.09
2023-04-02T16:49:37.852Z,97726.75
2023-04-02T16:52:27.773Z,97739.59
2023-04-02T16:55:12.339Z,97740.84
2023-04-02T16:58:11.083Z,97754.16
2023-04-02T17:01:00.859Z,97756.66
2023-04-02T17:03:56.843Z,97746.75
2023-04-02T17:06:40.912Z,97764.09
2023-04-02T17:09:17.498Z,97769.44
2023-04-02T17:11:51.638Z,97786.38
2023-04-02T17:14:29.558Z,97776.84
2023-04-02T17:17:00.712Z,97777.00
2023-04-02T17:19:28.843Z,97784.47
2023-04-02T17:22:04.006Z,97790.09
2023-04-02T17:24:44.306Z,97798.81
2023-04-02T17:27:16.339Z,97817.16
2023-04-02T17:29:47.294Z,97811.34
2023-04-02T17:32:22.676Z,97811.91
2023-04-02T17:34:49.031Z,97814.66
2023-04-02T17:37:27.522Z,97823.31
2023-04-02T17:40:06.013Z,97827.84
2023-04-02T17:42:44.522Z,97823.44
2023-04-02T17:45:18.485Z,97836.09
2023-04-02T17:48:05.493Z,97831.34
2023-04-02T17:51:15.676Z,97832.13
2023-04-02T17:53:49.062Z,97846.94
2023-04-02T17:56:41.670Z,97843.34
2023-04-02T17:59:14.415Z,97855.00
2023-04-02T18:02:26.003Z,97864.75
2023-04-02T18:05:13.067Z,97853.63
2023-04-02T18:07:51.666Z,97871.31
2023-04-02T18:10:18.026Z,97876.25
2023-04-02T18:12:57.019Z,97877.44
2023-04-02T18:15:41.745Z,97866.00
2023-04-02T18:18:41.676Z,97887.25
2023-04-02T18:21:15.046Z,97885.09
2023-04-02T18:24:02.164Z,97894.56
2023-04-02T18:26:39.453Z,97883.97
2023-04-02T18:29:12.503Z,97897.06
2023-04-02T18:31:51.755Z,97921.03
2023-04-02T18:34:36.672Z,97922.75
2023-04-02T18:37:28.515Z,97916.69
2023-04-02T18:40:00.738Z,97932.94
2023-04-02T18:42:54.453Z,97934.00
2023-04-02T18:45:31.619Z,97947.31
2023-04-02T18:48:28.385Z,97937.22
2023-04-02T18:50:55.065Z,97941.03
2023-04-02T18:53:24.981Z,97951.31
2023-04-02T18:56:11.888Z,97973.16
2023-04-02T18:58:49.253Z,97975.72
2023-04-02T19:01:24.094Z,97973.91
2023-04-02T19:03:53.163Z,97969.19
2023-04-02T19:06:28.626Z,97979.53
2023-04-02T19:09:00.300Z,97985.75
2023-04-02T19:11:31.222Z,97994.31
2023-04-02T19:14:17.762Z,97994.47
2023-04-02T19:17:16.967Z,97990.09
2023-04-02T19:19:56.971Z,97996.50
2023-04-02T19:22:39.188Z,97991.97
2023-04-02T19:25:31.168Z,98005.91
2023-04-02T19:28:06.529Z,98015.16
2023-04-02T19:30:35.923Z,98020.66
2023-04-02T19:33:23.907Z,98020.84
2023-04-02T19:35:58.603Z,98034.38
2023-04-02T19:38:52.044Z,98023.41
2023-04-02T19:41:40.254Z,98033.13
2023-04-02T19:44:13.318Z,98026.69
2023-04-02T19:46:40.717Z,98032.81
2023-04-02T19:49:28.408Z,98036.84
2023-04-02T19:51:55.703Z,98037.94
2023-04-02T19:54:22.634Z,98031.84
2023-04-02T19:56:49.023Z,98042.44
2023-04-02T19:59:18.011Z,98041.63
2023-04-02T20:01:46.014Z,98047.22
2023-04-02T20:04:12.552Z,98032.88
2023-04-02T20:06:39.143Z,98038.19
2023-04-02T20:09:05.619Z,98038.28
2023-04-02T20:11:34.009Z,98053.31
2023-04-02T20:14:00.377Z,98042.25
2023-04-02T20:16:26.950Z,98054.66
2023-04-02T20:18:53.368Z,98063.50
2023-04-02T20:21:19.831Z,98049.31
2023-04-02T20:23:46.195Z,98062.56
2023-04-02T20:26:13.056Z,98067.13
2023-04-02T20:28:39.693Z,98055.38
2023-04-02T20:31:14.396Z,98073.44
2023-04-02T20:33:42.019Z,98079.03
2023-04-02T20:36:16.722Z,98075.78
2023-04-02T20:38:43.775Z,98081.59
2023-04-02T20:41:10.839Z,98082.38
2023-04-02T20:43:40.276Z,98081.75
2023-04-02T20:46:09.464Z,98084.50
2023-04-02T20:48:37.585Z,98068.72
2023-04-02T20:51:05.987Z,98080.09
2023-04-02T20:53:34.756Z,98080.00
2023-04-02T20:56:10.173Z,98096.28
2023-04-02T20:58:38.218Z,98099.75
2023-04-02T21:01:08.813Z,98113.41
2023-04-02T21:03:35.284Z,98107.06
2023-04-02T21:06:01.792Z,98101.19
2023-04-02T21:08:28.312Z,98112.88
2023-04-02T21:11:02.431Z,98114.22
2023-04-02T21:13:30.803Z,98115.91
2023-04-02T21:15:57.256Z,98108.22
2023-04-02T21:18:23.717Z,98109.91
2023-04-02T21:20:58.379Z,98125.94
2023-04-02T21:23:25.059Z,98131.41
2023-04-02T21:25:58.774Z,98126.84
2023-04-02T21:28:25.769Z,98134.72
2023-04-02T21:30:52.909Z,98124.91
2023-04-02T21:33:19.271Z,98128.94
2023-04-02T21:35:45.759Z,98134.97
2023-04-02T21:38:12.321Z,98133.94
2023-04-02T21:40:38.700Z,98137.84
2023-04-02T21:43:05.295Z,98124.56
2023-04-02T21:45:31.664Z,98126.16
2023-04-02T21:47:58.039Z,98133.94
2023-04-02T21:50:24.484Z,98130.94
2023-04-02T21:52:51.015Z,98132.28
2023-04-02T21:55:17.381Z,98136.06
2023-04-02T21:57:43.759Z,98134.41
2023-04-02T22:00:12.296Z,98121.94
2023-04-02T22:02:38.811Z,98135.97
2023-04-02T22:05:05.768Z,98138.97
2023-04-02T22:07:32.113Z,98128.16
2023-04-02T22:09:58.462Z,98122.38
2023-04-02T22:12:24.849Z,98134.63
2023-04-02T22:14:51.676Z,98134.84
2023-04-02T22:17:18.060Z,98129.25
2023-04-02T22:19:44.411Z,98130.38
2023-04-02T22:22:10.962Z,98133.59
2023-04-02T22:24:37.324Z,98128.00
2023-04-02T22:27:03.829Z,98142.19
2023-04-02T22:29:30.355Z,98137.31
2023-04-02T22:31:56.749Z,98138.53
2023-04-02T22:34:23.212Z,98149.53
2023-04-02T22:36:49.635Z,98140.63
2023-04-02T22:39:16.916Z,98140.50
2023-04-02T22:41:43.340Z,98138.97
2023-04-02T22:44:14.242Z,98132.94
2023-04-02T22:46:40.698Z,98137.16
2023-04-02T22:49:07.206Z,98133.94
2023-04-02T22:51:33.557Z,98126.34
2023-04-02T22:53:59.942Z,98137.38
2023-04-02T22:56:31.579Z,98128.91
2023-04-02T22:58:57.979Z,98129.63
2023-04-02T23:01:27.504Z,98139.88
2023-04-02T23:03:54.968Z,98125.56
2023-04-02T23:06:21.821Z,98140.41
2023-04-02T23:08:48.265Z,98132.25
2023-04-02T23:11:18.014Z,98141.63
2023-04-02T23:13:46.552Z,98137.94
2023-04-02T23:16:14.047Z,98139.94
2023-04-02T23:18:41.853Z,98132.50
2023-04-02T23:21:09.775Z,98134.16
2023-04-02T23:23:36.700Z,98132.03
2023-04-02T23:26:10.960Z,98146.97
2023-04-02T23:28:39.060Z,98136.28
2023-04-02T23:31:08.159Z,98141.72
2023-04-02T23:33:35.467Z,98140.50
2023-04-02T23:36:18.524Z,98144.84
2023-04-02T23:38:44.993Z,98145.09
2023-04-02T23:41:16.364Z,98143.84
2023-04-02T23:43:43.413Z,98142.94
2023-04-02T23:46:10.046Z,98154.78
2023-04-02T23:48:36.554Z,98141.09
2023-04-02T23:51:04.472Z,98149.53
2023-04-02T23:53:30.966Z,98150.75
2023-04-02T23:55:57.479Z,98146.84
2023-04-02T23:58:23.878Z,98155.00
